Time;durP1;ratioP1;P1;durP2;ratioP2;P2;SDS_P1;SDS_P2;PMS_P1;PMS_P2;Temp;Humidity;BMP_temperature;BMP_pressure;BME280_temperature;BME280_humidity;BME280_pressure;Samples;Min_cycle;Max_cycle;Signal;HPM_P1;HPM_P2
2022/06/08 00:00:21;;;;;;;3.25;2.90;;;9.80;99.90;;;;;;5078753;28;20040;-66
2022/06/08 00:02:54;;;;;;;4.10;3.00;;;9.80;99.90;;;;;;5084104;28;20039;-66
2022/06/08 00:05:19;;;;;;;3.28;2.85;;;9.80;99.90;;;;;;5096429;28;20045;-66
2022/06/08 00:07:45;;;;;;;7.35;4.90;;;9.70;99.90;;;;;;5077256;28;20039;-66
2022/06/08 00:10:12;;;;;;;4.40;4.00;;;10.00;99.90;;;;;;5059435;28;20039;-66
2022/06/08 00:12:37;;;;;;;5.20;4.45;;;9.90;99.90;;;;;;5079744;28;20047;-66
2022/06/08 00:15:06;;;;;;;8.25;5.53;;;9.90;99.90;;;;;;5080487;28;20036;-66
2022/06/08 00:17:31;;;;;;;7.10;5.10;;;9.90;99.90;;;;;;5071143;28;20120;-66
2022/06/08 00:19:57;;;;;;;7.25;4.68;;;10.00;99.90;;;;;;5092351;28;20119;-66
2022/06/08 00:22:24;;;;;;;6.18;4.70;;;10.00;99.90;;;;;;5074993;28;20068;-66
2022/06/08 00:24:49;;;;;;;8.88;4.97;;;9.90;99.90;;;;;;5095007;28;20136;-66
2022/06/08 00:27:15;;;;;;;5.63;5.10;;;9.90;99.90;;;;;;5103585;27;20055;-66
2022/06/08 00:29:41;;;;;;;8.60;6.07;;;9.80;99.90;;;;;;5079455;28;20485;-66
2022/06/08 00:32:07;;;;;;;6.07;5.18;;;9.80;99.90;;;;;;5079231;28;20127;-66
2022/06/08 00:34:32;;;;;;;9.30;6.60;;;9.80;99.90;;;;;;5080531;28;20080;-66
2022/06/08 00:36:58;;;;;;;6.88;5.05;;;9.80;99.90;;;;;;5087340;28;20039;-66
2022/06/08 00:39:24;;;;;;;60.72;5.68;;;9.80;99.90;;;;;;5073265;28;20044;-66
2022/06/08 00:41:59;;;;;;;12.65;4.50;;;9.70;99.90;;;;;;5095835;28;20040;-66
2022/06/08 00:44:30;;;;;;;4.53;4.18;;;9.60;99.90;;;;;;5062776;28;20045;-66
2022/06/08 00:46:58;;;;;;;4.93;4.43;;;9.90;99.90;;;;;;5060351;28;20089;-66
2022/06/08 00:49:30;;;;;;;7.82;4.88;;;9.70;99.90;;;;;;5078588;28;20054;-66
2022/06/08 00:51:59;;;;;;;6.32;4.88;;;9.60;99.90;;;;;;5095945;28;20035;-66
2022/06/08 00:54:32;;;;;;;6.25;4.22;;;9.60;99.90;;;;;;5078257;28;20048;-65
2022/06/08 00:57:02;;;;;;;13.02;5.28;;;9.60;99.90;;;;;;5093208;28;20127;-66
2022/06/08 00:59:29;;;;;;;4.15;3.75;;;9.60;99.90;;;;;;5074410;28;20402;-66
2022/06/08 01:01:54;;;;;;;5.55;3.53;;;9.60;99.90;;;;;;5093751;28;20540;-66
2022/06/08 01:04:21;;;;;;;3.65;3.10;;;9.60;99.90;;;;;;5097365;28;20062;-66
2022/06/08 01:06:54;;;;;;;2.13;2.03;;;9.60;99.90;;;;;;5077306;28;20063;-66
2022/06/08 01:09:28;;;;;;;6.53;3.10;;;9.50;99.90;;;;;;5074158;28;20048;-65
2022/06/08 01:11:56;;;;;;;3.03;2.83;;;9.40;99.90;;;;;;5075148;28;20047;-65
2022/06/08 01:14:23;;;;;;;3.00;2.70;;;9.40;99.90;;;;;;5089991;28;20657;-65
2022/06/08 01:17:07;;;;;;;6.03;2.97;;;9.40;99.90;;;;;;5095829;28;20047;-65
2022/06/08 01:19:35;;;;;;;5.53;3.35;;;9.40;99.90;;;;;;5070983;28;20089;-66
2022/06/08 01:22:02;;;;;;;7.13;4.25;;;9.40;99.90;;;;;;5094984;28;20382;-66
2022/06/08 01:24:29;;;;;;;4.97;3.80;;;9.40;99.90;;;;;;5094592;28;20035;-65
2022/06/08 01:27:06;;;;;;;5.50;4.63;;;9.40;99.90;;;;;;5052588;28;20041;-66
2022/06/08 01:29:40;;;;;;;5.88;5.38;;;9.30;99.90;;;;;;5103340;27;20135;-66
2022/06/08 01:32:11;;;;;;;7.03;5.10;;;9.40;99.90;;;;;;5075349;28;20486;-65
2022/06/08 01:35:12;;;;;;;7.90;5.75;;;9.40;99.90;;;;;;5074837;28;20051;-66
2022/06/08 01:37:40;;;;;;;6.35;5.05;;;9.40;99.90;;;;;;5093157;28;20077;-65
2022/06/08 01:40:24;;;;;;;6.88;6.20;;;9.50;99.90;;;;;;5096054;28;20494;-65
2022/06/08 01:43:28;;;;;;;7.28;6.10;;;9.50;99.90;;;;;;5079908;28;20647;-66
2022/06/08 01:46:05;;;;;;;8.60;6.40;;;9.60;99.90;;;;;;5075486;28;20058;-66
2022/06/08 01:48:54;;;;;;;13.82;9.25;;;9.70;99.90;;;;;;5058269;28;20047;-66
2022/06/08 01:51:31;;;;;;;9.00;7.35;;;9.70;99.90;;;;;;5071011;28;20067;-66
2022/06/08 01:54:14;;;;;;;10.30;9.13;;;9.80;99.90;;;;;;5076117;28;20547;-66
2022/06/08 01:56:55;;;;;;;19.00;12.30;;;9.90;99.90;;;;;;5103384;27;20058;-66
2022/06/08 01:59:40;;;;;;;12.25;9.20;;;9.90;99.90;;;;;;5063917;28;20048;-65
2022/06/08 02:02:33;;;;;;;11.02;9.23;;;10.00;99.90;;;;;;5071682;28;20194;-66
2022/06/08 02:05:24;;;;;;;14.57;12.30;;;10.00;99.90;;;;;;5076114;28;20051;-66
2022/06/08 02:07:56;;;;;;;15.10;12.88;;;10.10;99.90;;;;;;5093590;28;20039;-65
2022/06/08 02:10:26;;;;;;;15.82;13.32;;;10.20;99.90;;;;;;5077235;28;20477;-66
2022/06/08 02:13:06;;;;;;;18.20;13.60;;;10.30;99.90;;;;;;5071975;28;20036;-65
2022/06/08 02:15:37;;;;;;;20.83;13.60;;;10.30;99.90;;;;;;5093006;28;20103;-65
2022/06/08 02:18:37;;;;;;;17.70;14.68;;;10.30;99.90;;;;;;5077030;28;20126;-65
2022/06/08 02:21:10;;;;;;;19.25;13.90;;;10.40;99.90;;;;;;5060235;28;20084;-66
2022/06/08 02:23:48;;;;;;;19.02;15.05;;;10.40;99.90;;;;;;5094669;28;20129;-66
2022/06/08 02:26:29;;;;;;;15.35;13.73;;;10.50;99.90;;;;;;5090636;28;20044;-66
2022/06/08 02:29:01;;;;;;;24.13;15.38;;;10.50;99.90;;;;;;5056049;28;20056;-65
2022/06/08 02:31:35;;;;;;;20.85;16.60;;;10.60;99.90;;;;;;5091277;28;20108;-65
2022/06/08 02:37:00;;;;;;;17.88;14.27;;;10.60;99.90;;;;;;5071694;28;20074;-66
2022/06/08 02:39:38;;;;;;;22.35;15.05;;;10.70;99.90;;;;;;5093569;28;20085;-65
2022/06/08 02:42:10;;;;;;;18.98;14.93;;;10.80;99.90;;;;;;5070624;28;20046;-66
2022/06/08 02:44:38;;;;;;;20.98;16.15;;;10.80;99.90;;;;;;5046720;28;20098;-66
2022/06/08 02:47:20;;;;;;;19.33;15.68;;;10.80;99.90;;;;;;5095010;28;20397;-66
2022/06/08 02:49:45;;;;;;;18.33;15.27;;;10.80;99.90;;;;;;5111337;28;20082;-66
2022/06/08 02:52:20;;;;;;;16.77;12.82;;;10.80;99.90;;;;;;5092545;28;20041;-66
2022/06/08 02:54:46;;;;;;;14.60;13.00;;;10.80;99.90;;;;;;5094376;28;20524;-66
2022/06/08 02:57:55;;;;;;;18.52;12.40;;;10.80;99.90;;;;;;5076590;28;20035;-66
2022/06/08 03:00:56;;;;;;;15.75;13.55;;;10.70;99.90;;;;;;5070367;28;20636;-66
2022/06/08 03:03:31;;;;;;;18.23;14.93;;;10.60;99.90;;;;;;5094004;28;20052;-65
2022/06/08 03:06:09;;;;;;;19.63;13.60;;;10.80;99.90;;;;;;5101102;28;20050;-65
2022/06/08 03:08:47;;;;;;;14.57;13.07;;;10.60;99.90;;;;;;5096109;28;20044;-65
2022/06/08 03:11:14;;;;;;;18.77;13.57;;;10.60;99.90;;;;;;5111193;27;20481;-66
2022/06/08 03:13:41;;;;;;;14.50;11.88;;;10.60;99.90;;;;;;5097011;28;20035;-65
2022/06/08 03:16:08;;;;;;;14.35;12.85;;;10.60;99.90;;;;;;5075567;28;20078;-65
2022/06/08 03:18:35;;;;;;;17.50;12.70;;;10.70;99.90;;;;;;5097258;28;20032;-65
2022/06/08 03:21:02;;;;;;;15.02;12.82;;;10.80;99.90;;;;;;5082441;28;20050;-66
2022/06/08 03:23:29;;;;;;;18.30;12.98;;;10.60;99.90;;;;;;5080586;28;20040;-65
2022/06/08 03:25:55;;;;;;;12.07;10.55;;;10.60;99.90;;;;;;5077978;28;20485;-66
2022/06/08 03:28:21;;;;;;;23.73;16.30;;;10.60;99.90;;;;;;5110029;27;20082;-65
2022/06/08 03:30:47;;;;;;;18.90;14.15;;;10.60;99.90;;;;;;5098818;28;20130;-65
2022/06/08 03:33:15;;;;;;;17.75;13.50;;;10.60;99.90;;;;;;5072538;28;20036;-66
2022/06/08 03:35:41;;;;;;;19.83;15.13;;;10.60;99.90;;;;;;5097330;28;20127;-66
2022/06/08 03:38:28;;;;;;;16.42;13.77;;;10.60;99.90;;;;;;5078285;28;20039;-65
2022/06/08 03:40:54;;;;;;;20.88;15.88;;;10.70;99.90;;;;;;5096850;28;20039;-65
2022/06/08 03:43:20;;;;;;;17.77;13.88;;;10.80;99.90;;;;;;5073549;28;20122;-65
2022/06/08 03:45:51;;;;;;;15.15;13.55;;;10.80;99.90;;;;;;5108331;27;20050;-65
2022/06/08 03:48:18;;;;;;;18.52;13.85;;;10.90;99.90;;;;;;5094502;28;20119;-65
2022/06/08 03:50:48;;;;;;;19.55;14.55;;;11.00;99.90;;;;;;5095425;28;20047;-65
2022/06/08 03:53:20;;;;;;;19.73;16.00;;;11.10;99.90;;;;;;5080179;28;20102;-65
2022/06/08 03:55:48;;;;;;;17.38;15.52;;;11.20;99.90;;;;;;5110993;27;20048;-65
2022/06/08 03:58:16;;;;;;;21.40;15.55;;;11.30;99.90;;;;;;5090158;28;20044;-65
2022/06/08 04:00:41;;;;;;;19.33;16.35;;;11.50;99.90;;;;;;5074808;28;20058;-65
2022/06/08 04:03:09;;;;;;;18.58;16.65;;;11.60;99.90;;;;;;5091802;28;20029;-65
2022/06/08 04:05:36;;;;;;;19.95;15.50;;;11.90;99.90;;;;;;5092913;28;20054;-65
2022/06/08 04:08:03;;;;;;;18.10;15.10;;;12.40;99.90;;;;;;5099360;28;20064;-65
2022/06/08 04:10:30;;;;;;;17.58;15.45;;;12.30;99.90;;;;;;5078899;28;20052;-65
2022/06/08 04:12:56;;;;;;;18.48;15.70;;;12.40;99.90;;;;;;5075658;28;20174;-65
2022/06/08 04:18:06;;;;;;;17.58;15.82;;;12.50;99.90;;;;;;5092704;28;20052;-65
2022/06/08 04:20:33;;;;;;;20.17;16.58;;;12.50;99.90;;;;;;5093037;28;20047;-65
2022/06/08 04:22:59;;;;;;;20.00;17.90;;;12.60;99.90;;;;;;5103270;27;20048;-65
2022/06/08 04:25:24;;;;;;;21.75;18.23;;;12.80;99.90;;;;;;5073696;28;20089;-65
2022/06/08 04:27:50;;;;;;;23.55;18.73;;;12.60;99.90;;;;;;5076364;28;20039;-65
2022/06/08 04:30:16;;;;;;;20.90;18.75;;;12.70;99.90;;;;;;5090126;28;20031;-65
2022/06/08 04:32:41;;;;;;;23.60;19.50;;;12.70;99.90;;;;;;5072327;28;20038;-65
2022/06/08 04:35:07;;;;;;;22.67;19.50;;;12.80;99.90;;;;;;5077181;28;20035;-65
2022/06/08 04:37:37;;;;;;;22.35;19.60;;;12.90;99.90;;;;;;5080301;28;20051;-65
2022/06/08 04:40:04;;;;;;;21.52;18.98;;;12.90;99.90;;;;;;5085061;28;20040;-65
2022/06/08 04:42:30;;;;;;;26.73;20.33;;;12.90;99.90;;;;;;5091930;28;20036;-65
2022/06/08 04:44:55;;;;;;;22.67;19.95;;;12.90;99.90;;;;;;5099639;27;20067;-65
2022/06/08 04:47:21;;;;;;;21.77;19.42;;;12.90;99.90;;;;;;5101752;27;20614;-65
2022/06/08 04:49:47;;;;;;;22.38;18.88;;;13.00;99.90;;;;;;5099110;27;20044;-65
2022/06/08 04:52:12;;;;;;;24.92;20.95;;;13.00;99.90;;;;;;5075954;28;20063;-65
2022/06/08 04:54:38;;;;;;;22.75;20.40;;;13.20;99.90;;;;;;5071339;28;20481;-65
2022/06/08 04:57:04;;;;;;;25.25;19.40;;;13.00;99.90;;;;;;5091981;28;20942;-65
2022/06/08 04:59:30;;;;;;;22.30;19.40;;;13.10;99.90;;;;;;5090138;28;20044;-65
2022/06/08 05:01:56;;;;;;;24.80;21.65;;;13.20;99.90;;;;;;5078072;28;20040;-65
2022/06/08 05:04:21;;;;;;;26.88;21.42;;;13.20;99.90;;;;;;5101487;27;20575;-65
2022/06/08 05:06:47;;;;;;;26.00;21.23;;;13.20;99.90;;;;;;5070935;28;20550;-65
2022/06/08 05:09:13;;;;;;;23.67;20.83;;;13.30;99.90;;;;;;5095204;28;20066;-65
2022/06/08 05:11:39;;;;;;;27.52;22.75;;;13.30;99.90;;;;;;5076716;28;20043;-65
2022/06/08 05:14:05;;;;;;;25.33;20.88;;;13.40;99.90;;;;;;5068894;28;20110;-65
2022/06/08 05:16:31;;;;;;;25.13;21.13;;;13.40;99.90;;;;;;5109162;27;20043;-65
2022/06/08 05:18:56;;;;;;;25.70;20.80;;;13.50;99.90;;;;;;5075535;28;20092;-65
2022/06/08 05:21:22;;;;;;;27.05;19.83;;;13.60;99.90;;;;;;5093717;28;20035;-65
2022/06/08 05:23:49;;;;;;;24.63;20.88;;;13.60;99.90;;;;;;5076231;28;20039;-65
2022/06/08 05:26:15;;;;;;;24.73;20.65;;;13.70;99.90;;;;;;5071811;28;21545;-65
2022/06/08 05:28:41;;;;;;;22.50;20.10;;;14.10;99.90;;;;;;5072695;28;20075;-65
2022/06/08 05:31:07;;;;;;;22.45;19.40;;;13.90;99.90;;;;;;5092965;28;20117;-65
2022/06/08 05:33:33;;;;;;;23.00;19.33;;;14.00;99.90;;;;;;5095374;28;20033;-65
2022/06/08 05:35:59;;;;;;;21.70;19.38;;;14.10;99.90;;;;;;5078844;28;20048;-65
2022/06/08 05:38:25;;;;;;;20.50;18.42;;;14.20;99.90;;;;;;5076750;28;20109;-65
2022/06/08 05:40:50;;;;;;;19.95;17.95;;;14.20;99.90;;;;;;5106606;27;20156;-65
2022/06/08 05:43:17;;;;;;;20.50;18.25;;;14.20;99.90;;;;;;5097889;28;20036;-65
2022/06/08 05:45:45;;;;;;;18.77;16.95;;;14.30;99.90;;;;;;5073183;28;20058;-65
2022/06/08 05:48:11;;;;;;;20.85;18.63;;;14.30;99.90;;;;;;5108275;27;20047;-66
2022/06/08 05:50:38;;;;;;;23.67;17.27;;;14.40;99.90;;;;;;5090662;28;20036;-65
2022/06/08 05:53:04;;;;;;;17.50;15.77;;;14.40;99.90;;;;;;5088065;28;20055;-65
2022/06/08 05:55:30;;;;;;;18.75;16.77;;;14.50;99.90;;;;;;5085756;28;20044;-65
2022/06/08 05:57:56;;;;;;;19.75;16.27;;;14.60;99.90;;;;;;5089879;28;20051;-66
2022/06/08 06:00:30;;;;;;;16.80;15.10;;;14.70;99.90;;;;;;5068837;28;20039;-65
2022/06/08 06:02:56;;;;;;;17.75;15.85;;;14.80;99.90;;;;;;5087956;28;20036;-65
2022/06/08 06:05:25;;;;;;;15.63;13.48;;;15.00;99.90;;;;;;5066246;28;20040;-65
2022/06/08 06:07:51;;;;;;;15.27;13.75;;;15.20;99.90;;;;;;5087949;28;20942;-65
2022/06/08 06:10:18;;;;;;;15.98;14.00;;;15.30;99.90;;;;;;5090227;28;20150;-65
2022/06/08 06:12:44;;;;;;;16.23;14.63;;;15.40;99.90;;;;;;5079942;28;20131;-66
2022/06/08 06:15:12;;;;;;;15.32;13.88;;;15.50;99.90;;;;;;5092847;28;20114;-65
2022/06/08 06:17:38;;;;;;;15.18;12.82;;;15.50;99.90;;;;;;5040936;28;20044;-65
2022/06/08 06:20:05;;;;;;;15.05;13.48;;;15.60;99.90;;;;;;5069449;28;20052;-65
2022/06/08 06:22:33;;;;;;;16.60;13.38;;;15.70;99.90;;;;;;5067794;28;20040;-66
2022/06/08 06:25:00;;;;;;;14.50;12.77;;;15.80;99.90;;;;;;5100359;28;20047;-66
2022/06/08 06:27:26;;;;;;;12.57;11.40;;;16.10;99.90;;;;;;5071362;28;20052;-66
2022/06/08 06:29:52;;;;;;;13.00;11.70;;;16.40;99.90;;;;;;5089985;28;20048;-66
2022/06/08 06:32:26;;;;;;;15.88;11.70;;;16.90;99.90;;;;;;5077297;28;20036;-66
2022/06/08 06:34:53;;;;;;;14.55;12.00;;;17.30;99.90;;;;;;5038649;28;20040;-66
2022/06/08 06:37:18;;;;;;;11.93;10.80;;;17.70;99.90;;;;;;5058652;28;20048;-66
2022/06/08 06:39:44;;;;;;;12.85;10.48;;;18.10;99.90;;;;;;5073000;28;20059;-66
2022/06/08 06:42:19;;;;;;;11.45;10.30;;;18.50;99.90;;;;;;5061796;28;20051;-66
2022/06/08 06:44:45;;;;;;;11.70;10.70;;;18.70;99.90;;;;;;5059869;28;20370;-66
2022/06/08 06:47:12;;;;;;;11.00;9.90;;;19.00;99.90;;;;;;5063324;28;20142;-66
2022/06/08 06:49:38;;;;;;;10.60;9.60;;;19.10;99.90;;;;;;5082512;28;20044;-66
2022/06/08 06:52:05;;;;;;;10.18;9.05;;;19.30;99.90;;;;;;5060688;28;21518;-67
2022/06/08 06:54:31;;;;;;;9.70;8.70;;;19.50;99.90;;;;;;5060398;28;20121;-67
2022/06/08 06:56:57;;;;;;;8.00;7.30;;;19.60;99.90;;;;;;5061744;28;20039;-67
2022/06/08 06:59:23;;;;;;;9.57;8.13;;;19.70;99.90;;;;;;5082396;28;20044;-67
2022/06/08 07:01:49;;;;;;;9.00;8.10;;;19.60;99.90;;;;;;5054814;28;20048;-67
2022/06/08 07:04:18;;;;;;;9.02;7.53;;;19.70;99.90;;;;;;5060627;28;20485;-67
2022/06/08 07:06:44;;;;;;;8.60;7.68;;;19.80;99.90;;;;;;5079198;28;20043;-67
2022/06/08 07:09:10;;;;;;;7.55;6.85;;;19.90;99.90;;;;;;5059952;28;20135;-67
2022/06/08 07:11:39;;;;;;;8.50;6.93;;;20.10;99.90;;;;;;5089480;27;20051;-67
2022/06/08 07:14:19;;;;;;;5.55;4.72;;;20.10;99.90;;;;;;5059985;28;20048;-67
2022/06/08 07:16:46;;;;;;;6.40;5.45;;;20.20;99.90;;;;;;5060917;28;20444;-67
2022/06/08 07:19:13;;;;;;;5.25;4.78;;;20.30;99.90;;;;;;5058863;28;20179;-67
2022/06/08 07:21:40;;;;;;;5.85;4.97;;;20.30;99.90;;;;;;5044539;28;20148;-67
2022/06/08 07:24:06;;;;;;;5.57;5.07;;;20.00;99.90;;;;;;5075154;28;20055;-67
2022/06/08 07:26:33;;;;;;;9.05;5.95;;;19.80;99.90;;;;;;5076331;28;20055;-67
2022/06/08 07:29:00;;;;;;;4.82;4.38;;;19.50;99.90;;;;;;5078790;28;20040;-67
2022/06/08 07:31:27;;;;;;;6.30;5.15;;;19.40;99.90;;;;;;5085311;27;20044;-67
2022/06/08 07:33:53;;;;;;;5.63;4.60;;;19.30;99.90;;;;;;5075868;28;20722;-67
2022/06/08 07:36:20;;;;;;;4.65;4.25;;;19.10;99.90;;;;;;5076891;28;20047;-67
2022/06/08 07:38:45;;;;;;;5.68;4.55;;;19.00;99.90;;;;;;5076493;28;20523;-67
2022/06/08 07:41:11;;;;;;;4.78;4.38;;;18.80;99.90;;;;;;5055519;28;20036;-67
2022/06/08 07:43:37;;;;;;;6.35;4.60;;;18.90;99.90;;;;;;5059059;28;20050;-67
2022/06/08 07:46:05;;;;;;;4.15;3.75;;;18.90;99.90;;;;;;5077162;28;20647;-67
2022/06/08 07:51:15;;;;;;;4.85;3.50;;;19.20;99.90;;;;;;5085801;27;20060;-66
2022/06/08 07:53:41;;;;;;;4.07;3.50;;;19.40;99.90;;;;;;5058234;28;20047;-67
2022/06/08 07:56:07;;;;;;;6.35;3.65;;;19.40;99.90;;;;;;5055533;28;20052;-67
2022/06/08 07:58:33;;;;;;;5.55;3.00;;;19.50;99.90;;;;;;5078925;28;20044;-67
2022/06/08 08:00:58;;;;;;;4.30;2.60;;;19.60;99.90;;;;;;5058176;28;20040;-67
2022/06/08 08:03:25;;;;;;;4.72;2.78;;;19.50;99.90;;;;;;5077352;28;21214;-66
2022/06/08 08:05:51;;;;;;;8.18;2.63;;;19.60;99.90;;;;;;5074558;28;20134;-66
2022/06/08 08:08:17;;;;;;;4.88;2.53;;;19.80;99.90;;;;;;5080019;28;20726;-66
2022/06/08 08:10:44;;;;;;;4.30;3.05;;;19.80;99.90;;;;;;5076503;28;20549;-67
2022/06/08 08:13:09;;;;;;;3.15;2.63;;;20.00;99.90;;;;;;5058841;28;20035;-67
2022/06/08 08:15:36;;;;;;;2.42;1.95;;;20.10;99.90;;;;;;5060082;28;20473;-67
2022/06/08 08:18:02;;;;;;;2.47;1.70;;;20.20;99.90;;;;;;5054920;28;20035;-67
2022/06/08 08:20:29;;;;;;;2.72;2.30;;;20.30;99.90;;;;;;5042469;28;20314;-67
2022/06/08 08:22:55;;;;;;;7.32;2.40;;;20.30;99.90;;;;;;5055756;28;20051;-67
2022/06/08 08:25:22;;;;;;;5.60;2.67;;;20.30;99.90;;;;;;5073164;28;20066;-67
2022/06/08 08:27:48;;;;;;;2.80;2.13;;;20.40;99.90;;;;;;5078893;28;20047;-67
2022/06/08 08:30:16;;;;;;;3.72;2.25;;;20.60;99.90;;;;;;5075918;28;20048;-67
2022/06/08 08:32:42;;;;;;;5.75;2.38;;;20.90;99.90;;;;;;5076886;28;20047;-67
2022/06/08 08:35:08;;;;;;;4.25;2.85;;;21.00;99.90;;;;;;5055793;28;20044;-67
2022/06/08 08:37:35;;;;;;;5.40;2.35;;;21.00;99.90;;;;;;5071769;28;20101;-67
2022/06/08 08:40:01;;;;;;;3.60;1.48;;;20.80;99.90;;;;;;5074410;28;20721;-67
2022/06/08 08:42:27;;;;;;;3.08;1.90;;;20.70;99.90;;;;;;5060858;28;20113;-67
2022/06/08 08:44:58;;;;;;;4.10;2.10;;;20.50;99.90;;;;;;5077096;28;20044;-67
2022/06/08 08:47:35;;;;;;;3.78;1.55;;;20.50;99.90;;;;;;5072568;28;20043;-67
2022/06/08 08:50:46;;;;;;;4.35;1.50;;;20.50;99.90;;;;;;5055765;28;20044;-67
2022/06/08 08:53:34;;;;;;;2.45;1.52;;;20.70;99.90;;;;;;5081315;27;20209;-67
2022/06/08 08:56:08;;;;;;;4.93;2.03;;;20.80;99.90;;;;;;5073037;28;20421;-67
2022/06/08 08:58:37;;;;;;;3.13;1.52;;;20.70;99.90;;;;;;5056870;28;20064;-67
2022/06/08 09:01:14;;;;;;;6.53;2.08;;;20.70;99.90;;;;;;5075630;28;20128;-67
2022/06/08 09:03:44;;;;;;;3.08;1.50;;;20.60;99.90;;;;;;5078931;28;20454;-67
2022/06/08 09:06:14;;;;;;;2.35;1.00;;;20.60;99.90;;;;;;5071878;28;20058;-67
2022/06/08 09:08:45;;;;;;;4.70;1.30;;;20.50;99.90;;;;;;5060513;28;20048;-67
2022/06/08 09:11:15;;;;;;;2.55;1.65;;;20.50;99.90;;;;;;5068045;28;20457;-67
2022/06/08 09:13:50;;;;;;;2.38;1.50;;;20.60;99.90;;;;;;5060868;28;20119;-67
2022/06/08 09:16:39;;;;;;;2.40;1.30;;;20.80;99.90;;;;;;5072692;28;20040;-67
2022/06/08 09:19:28;;;;;;;4.15;1.75;;;20.90;99.90;;;;;;5059173;28;20129;-67
2022/06/08 09:22:24;;;;;;;3.10;1.30;;;20.90;99.90;;;;;;5057195;28;20044;-67
2022/06/08 09:24:57;;;;;;;4.10;1.52;;;20.70;99.90;;;;;;5054901;28;20085;-67
2022/06/08 09:27:26;;;;;;;4.38;1.30;;;20.60;99.90;;;;;;5056322;28;20041;-67
2022/06/08 09:30:12;;;;;;;2.42;1.08;;;20.60;99.90;;;;;;5074518;28;20504;-67
2022/06/08 09:32:38;;;;;;;3.60;2.53;;;20.80;99.90;;;;;;5075609;28;20066;-67
2022/06/08 09:35:30;;;;;;;4.97;2.63;;;20.90;99.90;;;;;;5055305;28;20052;-67
2022/06/08 09:38:04;;;;;;;3.72;2.40;;;20.90;99.90;;;;;;5083331;28;20043;-67
2022/06/08 09:40:40;;;;;;;4.05;2.80;;;21.00;99.90;;;;;;5076303;28;20054;-67
2022/06/08 09:43:18;;;;;;;4.72;2.22;;;21.20;99.90;;;;;;5071974;28;21211;-67
2022/06/08 09:46:15;;;;;;;4.18;2.67;;;21.20;99.90;;;;;;5074655;28;20464;-67
2022/06/08 09:52:35;;;;;;;7.60;2.50;;;21.30;99.90;;;;;;5056812;28;20044;-67
2022/06/08 09:55:18;;;;;;;4.45;2.35;;;21.20;99.90;;;;;;5074911;28;20036;-67
2022/06/08 09:58:06;;;;;;;4.60;1.88;;;21.10;99.90;;;;;;5055487;28;20804;-67
2022/06/08 10:00:56;;;;;;;4.28;1.95;;;21.10;99.90;;;;;;5028107;28;20412;-67
2022/06/08 10:03:41;;;;;;;2.50;2.05;;;21.10;99.90;;;;;;5058591;28;20051;-67
2022/06/08 10:06:21;;;;;;;3.38;2.55;;;21.10;99.90;;;;;;5084955;27;20044;-67
2022/06/08 10:09:04;;;;;;;3.90;2.08;;;21.10;99.90;;;;;;5072803;28;20082;-67
2022/06/08 10:11:42;;;;;;;6.85;2.13;;;21.20;99.90;;;;;;5073998;28;20354;-67
2022/06/08 10:14:16;;;;;;;3.50;2.08;;;21.20;99.90;;;;;;5074225;28;20040;-67
2022/06/08 10:16:58;;;;;;;2.50;1.92;;;21.20;99.90;;;;;;5074976;28;20096;-67
2022/06/08 10:19:34;;;;;;;3.75;1.75;;;21.40;99.90;;;;;;5074783;28;20563;-67
2022/06/08 10:22:03;;;;;;;9.18;2.55;;;21.40;99.90;;;;;;5054256;28;20167;-67
2022/06/08 10:24:47;;;;;;;2.35;2.00;;;21.50;99.90;;;;;;5072648;28;20443;-67
2022/06/08 10:27:26;;;;;;;4.45;2.10;;;21.50;99.90;;;;;;5085748;28;20048;-67
2022/06/08 10:30:13;;;;;;;3.08;2.47;;;21.50;99.90;;;;;;5056118;28;20048;-67
2022/06/08 10:32:44;;;;;;;5.30;2.55;;;21.70;99.90;;;;;;5075667;28;20071;-67
2022/06/08 10:35:25;;;;;;;5.85;2.63;;;21.90;99.90;;;;;;5073781;28;20460;-67
2022/06/08 10:37:52;;;;;;;5.00;2.88;;;22.00;99.90;;;;;;5074204;28;20657;-67
2022/06/08 10:40:25;;;;;;;5.05;3.08;;;22.10;99.90;;;;;;5076005;28;20047;-67
2022/06/08 10:42:52;;;;;;;7.40;2.95;;;22.00;99.90;;;;;;5066803;28;20092;-67
2022/06/08 10:45:22;;;;;;;4.78;3.22;;;22.10;99.90;;;;;;5056952;28;20048;-67
2022/06/08 10:47:57;;;;;;;4.95;2.72;;;22.00;99.90;;;;;;5079612;28;20158;-67
2022/06/08 10:50:36;;;;;;;4.13;2.83;;;21.90;99.90;;;;;;5074911;28;20044;-67
2022/06/08 10:56:23;;;;;;;5.55;2.63;;;21.90;99.90;;;;;;5073855;28;20167;-67
2022/06/08 10:59:03;;;;;;;5.28;3.10;;;21.80;99.90;;;;;;5055327;28;20036;-67
2022/06/08 11:01:50;;;;;;;7.03;2.97;;;21.70;99.90;;;;;;5072385;28;20046;-67
2022/06/08 11:04:31;;;;;;;5.15;3.00;;;21.70;99.90;;;;;;5083146;28;20067;-67
2022/06/08 11:07:10;;;;;;;3.88;2.97;;;21.50;99.90;;;;;;5072001;28;20063;-67
2022/06/08 11:09:36;;;;;;;4.22;3.00;;;21.70;99.90;;;;;;5074171;28;20552;-67
2022/06/08 11:12:21;;;;;;;4.72;2.97;;;21.40;99.90;;;;;;5082339;28;20048;-67
2022/06/08 11:14:52;;;;;;;4.57;3.53;;;21.20;99.90;;;;;;5074687;28;20083;-67
2022/06/08 11:17:48;;;;;;;4.20;3.72;;;21.10;99.90;;;;;;5071926;28;20394;-67
2022/06/08 11:20:35;;;;;;;4.70;3.10;;;21.10;99.90;;;;;;5057064;28;20044;-68
2022/06/08 11:23:27;;;;;;;4.60;3.38;;;20.90;99.90;;;;;;5055160;28;20653;-68
2022/06/08 11:26:14;;;;;;;6.45;3.35;;;21.00;99.90;;;;;;5086456;27;20074;-68
2022/06/08 11:28:44;;;;;;;4.25;3.08;;;21.10;99.90;;;;;;5076806;28;20054;-68
2022/06/08 11:31:26;;;;;;;4.93;3.17;;;21.10;99.90;;;;;;5079290;28;20039;-68
2022/06/08 11:34:03;;;;;;;4.07;2.97;;;21.10;99.90;;;;;;5085866;27;20047;-68
2022/06/08 11:36:47;;;;;;;3.75;3.22;;;20.90;99.90;;;;;;5092732;27;20141;-68
2022/06/08 11:39:28;;;;;;;3.13;2.50;;;20.90;99.90;;;;;;5043923;28;20603;-68
2022/06/08 11:42:22;;;;;;;5.65;3.10;;;21.10;99.90;;;;;;5055925;28;20110;-68
2022/06/08 11:45:20;;;;;;;9.10;2.47;;;21.30;99.90;;;;;;5075011;28;20052;-68
2022/06/08 11:47:49;;;;;;;6.07;1.80;;;21.20;99.90;;;;;;5082235;28;20110;-68
2022/06/08 11:50:30;;;;;;;10.70;1.15;;;21.20;99.90;;;;;;5056862;28;20088;-68
2022/06/08 11:53:05;;;;;;;17.48;2.05;;;20.80;99.90;;;;;;5090434;27;20044;-68
2022/06/08 11:55:41;;;;;;;10.07;1.42;;;20.50;99.90;;;;;;5077353;28;20126;-68
2022/06/08 11:58:17;;;;;;;24.25;2.22;;;20.00;99.90;;;;;;5077056;28;20623;-68
2022/06/08 12:00:46;;;;;;;10.95;1.42;;;19.70;99.90;;;;;;5056924;28;20040;-69
2022/06/08 12:03:44;;;;;;;6.60;1.17;;;19.40;99.90;;;;;;5078055;28;20044;-68
2022/06/08 12:06:25;;;;;;;9.63;1.45;;;18.90;99.90;;;;;;5077715;28;20109;-69
2022/06/08 12:08:56;;;;;;;6.45;1.30;;;18.50;99.90;;;;;;5061079;28;20159;-68
2022/06/08 12:11:25;;;;;;;4.57;1.40;;;18.30;99.90;;;;;;5078215;28;20032;-68
2022/06/08 12:14:03;;;;;;;5.68;1.30;;;18.10;99.90;;;;;;5084274;27;20035;-68
2022/06/08 12:16:36;;;;;;;4.90;1.10;;;18.00;99.90;;;;;;5056540;28;20039;-68
2022/06/08 12:19:13;;;;;;;4.95;1.10;;;17.90;99.90;;;;;;5075308;28;20044;-68
2022/06/08 12:21:42;;;;;;;7.72;1.63;;;17.80;99.90;;;;;;5079520;28;20478;-68
2022/06/08 12:24:13;;;;;;;3.95;0.60;;;17.80;99.90;;;;;;5073436;28;20115;-68
2022/06/08 12:26:54;;;;;;;4.05;0.90;;;17.80;99.90;;;;;;5056457;28;20097;-68
2022/06/08 12:29:30;;;;;;;2.90;1.00;;;17.80;99.90;;;;;;5087088;27;20476;-68
2022/06/08 12:32:14;;;;;;;4.90;0.85;;;17.80;99.90;;;;;;5058038;28;20482;-68
2022/06/08 12:34:44;;;;;;;5.70;1.50;;;17.50;99.90;;;;;;5069574;28;20041;-68
2022/06/08 12:37:28;;;;;;;6.07;1.25;;;17.60;99.90;;;;;;5072426;28;20099;-68
2022/06/08 12:39:55;;;;;;;5.20;1.73;;;17.40;99.90;;;;;;5071556;28;20039;-68
2022/06/08 12:42:23;;;;;;;4.22;1.13;;;17.40;99.90;;;;;;5073129;28;20036;-68
2022/06/08 12:44:54;;;;;;;5.00;1.48;;;17.30;99.90;;;;;;5075488;28;20157;-68
2022/06/08 12:47:21;;;;;;;7.43;1.00;;;17.30;99.90;;;;;;5084459;27;20238;-68
2022/06/08 12:49:54;;;;;;;2.95;1.05;;;17.40;99.90;;;;;;5055773;28;21022;-68
2022/06/08 12:52:22;;;;;;;4.72;1.23;;;17.40;99.90;;;;;;5085570;27;20043;-68
2022/06/08 12:54:48;;;;;;;6.13;2.05;;;17.40;99.90;;;;;;5075554;28;20024;-68
2022/06/08 12:57:20;;;;;;;3.40;1.67;;;17.50;99.90;;;;;;5056738;28;21281;-68
2022/06/08 12:59:50;;;;;;;4.82;2.20;;;17.60;99.90;;;;;;5058197;28;20055;-68
2022/06/08 13:02:23;;;;;;;9.15;3.03;;;17.60;99.90;;;;;;5055528;28;20494;-68
2022/06/08 13:04:50;;;;;;;6.30;2.80;;;17.60;99.90;;;;;;5077239;28;21059;-68
2022/06/08 13:07:21;;;;;;;5.22;2.90;;;17.60;99.90;;;;;;5054529;28;20044;-68
2022/06/08 13:09:48;;;;;;;9.95;4.25;;;17.60;99.90;;;;;;5053814;28;20044;-68
2022/06/08 13:12:22;;;;;;;4.57;3.53;;;17.70;99.90;;;;;;5059318;28;20059;-68
2022/06/08 13:14:48;;;;;;;10.25;3.70;;;17.60;99.90;;;;;;5073412;28;20067;-68
2022/06/08 13:17:14;;;;;;;6.35;3.40;;;17.70;99.90;;;;;;5052497;28;20036;-68
2022/06/08 13:19:40;;;;;;;8.45;3.70;;;17.70;99.90;;;;;;5078322;28;20461;-68